sensor_id;sensor_type;location;lat;lon;timestamp;pressure;altitude;pressure_sealevel;temperature;humidity
65872;BME280;52653;50.080;21.992;2023-04-20T00:01:22;99179.02;;;9.10;80.69
65872;BME280;52653;50.080;21.992;2023-04-20T00:03:55;99179.91;;;8.99;80.56
65872;BME280;52653;50.080;21.992;2023-04-20T00:06:28;99176.79;;;8.87;80.64
65872;BME280;52653;50.080;21.992;2023-04-20T00:09:02;99182.04;;;8.76;80.92
65872;BME280;52653;50.080;21.992;2023-04-20T00:11:36;99186.59;;;8.68;81.03
65872;BME280;52653;50.080;21.992;2023-04-20T00:14:12;99181.34;;;8.61;81.23
65872;BME280;52653;50.080;21.992;2023-04-20T00:16:48;99182.92;;;8.53;81.38
65872;BME280;52653;50.080;21.992;2023-04-20T00:19:31;99180.65;;;8.46;81.82
65872;BME280;52653;50.080;21.992;2023-04-20T00:22:05;99174.19;;;8.40;82.23
65872;BME280;52653;50.080;21.992;2023-04-20T00:24:40;99171.17;;;8.34;82.33
65872;BME280;52653;50.080;21.992;2023-04-20T00:27:13;99165.76;;;8.27;82.45
65872;BME280;52653;50.080;21.992;2023-04-20T00:29:45;99161.73;;;8.19;82.77
65872;BME280;52653;50.080;21.992;2023-04-20T00:32:18;99163.66;;;8.15;82.99
65872;BME280;52653;50.080;21.992;2023-04-20T00:34:53;99161.90;;;8.14;83.22
65872;BME280;52653;50.080;21.992;2023-04-20T00:37:28;99164.17;;;8.13;83.28
65872;BME280;52653;50.080;21.992;2023-04-20T00:40:02;99166.08;;;8.13;83.32
65872;BME280;52653;50.080;21.992;2023-04-20T00:42:35;99166.06;;;8.12;83.45
65872;BME280;52653;50.080;21.992;2023-04-20T00:45:15;99166.94;;;8.10;83.58
65872;BME280;52653;50.080;21.992;2023-04-20T00:47:48;99167.46;;;8.11;83.67
65872;BME280;52653;50.080;21.992;2023-04-20T00:50:21;99165.02;;;8.10;83.64
65872;BME280;52653;50.080;21.992;2023-04-20T00:53:04;99163.10;;;8.08;83.89
65872;BME280;52653;50.080;21.992;2023-04-20T00:55:50;99165.73;;;8.03;83.93
65872;BME280;52653;50.080;21.992;2023-04-20T00:58:36;99170.23;;;7.97;84.31
65872;BME280;52653;50.080;21.992;2023-04-20T01:01:12;99169.37;;;7.96;84.53
65872;BME280;52653;50.080;21.992;2023-04-20T01:03:56;99164.83;;;7.93;84.84
65872;BME280;52653;50.080;21.992;2023-04-20T01:06:32;99159.41;;;7.91;85.01
65872;BME280;52653;50.080;21.992;2023-04-20T01:09:08;99160.81;;;7.88;85.14
65872;BME280;52653;50.080;21.992;2023-04-20T01:11:41;99159.55;;;7.86;85.00
65872;BME280;52653;50.080;21.992;2023-04-20T01:14:20;99159.04;;;7.84;85.36
65872;BME280;52653;50.080;21.992;2023-04-20T01:16:53;99157.47;;;7.83;85.49
65872;BME280;52653;50.080;21.992;2023-04-20T01:19:26;99159.03;;;7.82;85.50
65872;BME280;52653;50.080;21.992;2023-04-20T01:22:01;99158.16;;;7.80;85.50
65872;BME280;52653;50.080;21.992;2023-04-20T01:24:47;99152.92;;;7.78;85.76
65872;BME280;52653;50.080;21.992;2023-04-20T01:27:40;99153.44;;;7.76;85.72
65872;BME280;52653;50.080;21.992;2023-04-20T01:30:28;99151.67;;;7.74;86.04
65872;BME280;52653;50.080;21.992;2023-04-20T01:33:07;99150.10;;;7.72;86.01
65872;BME280;52653;50.080;21.992;2023-04-20T01:35:43;99151.50;;;7.71;86.02
65872;BME280;52653;50.080;21.992;2023-04-20T01:38:19;99155.52;;;7.71;86.02
65872;BME280;52653;50.080;21.992;2023-04-20T01:40:55;99152.20;;;7.69;86.10
65872;BME280;52653;50.080;21.992;2023-04-20T01:43:32;99150.10;;;7.68;86.18
65872;BME280;52653;50.080;21.992;2023-04-20T01:46:05;99150.27;;;7.67;86.25
65872;BME280;52653;50.080;21.992;2023-04-20T01:48:38;99151.84;;;7.66;86.41
65872;BME280;52653;50.080;21.992;2023-04-20T01:51:13;99148.86;;;7.62;86.38
65872;BME280;52653;50.080;21.992;2023-04-20T01:53:53;99145.70;;;7.58;86.44
65872;BME280;52653;50.080;21.992;2023-04-20T01:56:28;99145.52;;;7.55;86.64
65872;BME280;52653;50.080;21.992;2023-04-20T01:59:03;99150.76;;;7.53;86.82
65872;BME280;52653;50.080;21.992;2023-04-20T02:01:36;99153.38;;;7.52;87.15
65872;BME280;52653;50.080;21.992;2023-04-20T02:04:11;99156.34;;;7.53;87.41
65872;BME280;52653;50.080;21.992;2023-04-20T02:06:44;99153.55;;;7.54;87.52
65872;BME280;52653;50.080;21.992;2023-04-20T02:09:19;99159.48;;;7.53;87.38
65872;BME280;52653;50.080;21.992;2023-04-20T02:11:52;99156.68;;;7.51;87.47
65872;BME280;52653;50.080;21.992;2023-04-20T02:14:25;99154.73;;;7.49;87.64
65872;BME280;52653;50.080;21.992;2023-04-20T02:16:58;99154.55;;;7.47;87.75
65872;BME280;52653;50.080;21.992;2023-04-20T02:19:31;99151.59;;;7.48;87.95
65872;BME280;52653;50.080;21.992;2023-04-20T02:22:06;99152.30;;;7.48;88.09
65872;BME280;52653;50.080;21.992;2023-04-20T02:24:39;99159.45;;;7.48;88.12
65872;BME280;52653;50.080;21.992;2023-04-20T02:27:13;99157.35;;;7.49;88.17
65872;BME280;52653;50.080;21.992;2023-04-20T02:29:49;99155.08;;;7.49;88.19
65872;BME280;52653;50.080;21.992;2023-04-20T02:32:24;99156.30;;;7.49;88.30
65872;BME280;52653;50.080;21.992;2023-04-20T02:34:57;99155.80;;;7.50;88.47
65872;BME280;52653;50.080;21.992;2023-04-20T02:37:33;99157.56;;;7.51;88.47
65872;BME280;52653;50.080;21.992;2023-04-20T02:40:09;99158.95;;;7.52;88.56
65872;BME280;52653;50.080;21.992;2023-04-20T02:42:52;99161.23;;;7.53;88.52
65872;BME280;52653;50.080;21.992;2023-04-20T02:45:32;99162.63;;;7.52;88.54
65872;BME280;52653;50.080;21.992;2023-04-20T02:48:07;99161.56;;;7.50;88.66
65872;BME280;52653;50.080;21.992;2023-04-20T02:50:42;99162.42;;;7.48;88.71
65872;BME280;52653;50.080;21.992;2023-04-20T02:53:25;99166.24;;;7.46;88.82
65872;BME280;52653;50.080;21.992;2023-04-20T02:56:18;99167.11;;;7.43;89.07
65872;BME280;52653;50.080;21.992;2023-04-20T02:58:57;99172.17;;;7.41;89.34
65872;BME280;52653;50.080;21.992;2023-04-20T03:01:44;99167.80;;;7.38;89.53
65872;BME280;52653;50.080;21.992;2023-04-20T03:04:33;99168.33;;;7.37;89.73
65872;BME280;52653;50.080;21.992;2023-04-20T03:07:10;99170.08;;;7.38;89.91
65872;BME280;52653;50.080;21.992;2023-04-20T03:09:49;99171.99;;;7.39;90.00
65872;BME280;52653;50.080;21.992;2023-04-20T03:12:22;99173.21;;;7.40;89.94
65872;BME280;52653;50.080;21.992;2023-04-20T03:14:58;99181.07;;;7.41;90.02
65872;BME280;52653;50.080;21.992;2023-04-20T03:17:53;99178.98;;;7.41;90.01
65872;BME280;52653;50.080;21.992;2023-04-20T03:20:37;99176.36;;;7.40;90.18
65872;BME280;52653;50.080;21.992;2023-04-20T03:23:13;99175.48;;;7.38;90.20
65872;BME280;52653;50.080;21.992;2023-04-20T03:25:49;99176.18;;;7.37;90.42
65872;BME280;52653;50.080;21.992;2023-04-20T03:28:38;99176.70;;;7.39;90.41
65872;BME280;52653;50.080;21.992;2023-04-20T03:31:14;99177.75;;;7.42;90.58
65872;BME280;52653;50.080;21.992;2023-04-20T03:33:47;99178.11;;;7.45;90.74
65872;BME280;52653;50.080;21.992;2023-04-20T03:36:21;99174.10;;;7.45;90.66
65872;BME280;52653;50.080;21.992;2023-04-20T03:38:54;99174.80;;;7.45;90.67
65872;BME280;52653;50.080;21.992;2023-04-20T03:41:29;99175.84;;;7.45;90.67
65872;BME280;52653;50.080;21.992;2023-04-20T03:44:02;99178.46;;;7.46;90.66
65872;BME280;52653;50.080;21.992;2023-04-20T03:46:40;99181.08;;;7.46;90.65
65872;BME280;52653;50.080;21.992;2023-04-20T03:49:13;99179.50;;;7.47;90.69
65872;BME280;52653;50.080;21.992;2023-04-20T03:52:07;99182.48;;;7.48;90.68
65872;BME280;52653;50.080;21.992;2023-04-20T03:54:48;99183.88;;;7.49;90.85
65872;BME280;52653;50.080;21.992;2023-04-20T03:57:34;99189.30;;;7.49;90.79
65872;BME280;52653;50.080;21.992;2023-04-20T04:00:27;99187.91;;;7.49;90.71
65872;BME280;52653;50.080;21.992;2023-04-20T04:03:04;99186.70;;;7.50;90.84
65872;BME280;52653;50.080;21.992;2023-04-20T04:05:41;99190.73;;;7.53;90.75
65872;BME280;52653;50.080;21.992;2023-04-20T04:08:34;99189.85;;;7.58;90.97
65872;BME280;52653;50.080;21.992;2023-04-20T04:11:27;99188.48;;;7.62;90.76
65872;BME280;52653;50.080;21.992;2023-04-20T04:14:20;99189.02;;;7.65;90.81
65872;BME280;52653;50.080;21.992;2023-04-20T04:17:05;99187.63;;;7.65;90.73
65872;BME280;52653;50.080;21.992;2023-04-20T04:19:51;99192.52;;;7.67;90.71
65872;BME280;52653;50.080;21.992;2023-04-20T04:22:45;99192.52;;;7.71;90.62
65872;BME280;52653;50.080;21.992;2023-04-20T04:25:39;99198.84;;;7.78;90.76
65872;BME280;52653;50.080;21.992;2023-04-20T04:28:33;99200.59;;;7.85;90.75
65872;BME280;52653;50.080;21.992;2023-04-20T04:31:28;99201.67;;;7.89;90.41
65872;BME280;52653;50.080;21.992;2023-04-20T04:34:23;99204.13;;;7.95;90.39
65872;BME280;52653;50.080;21.992;2023-04-20T04:37:20;99208.17;;;8.02;90.23
65872;BME280;52653;50.080;21.992;2023-04-20T04:40:09;99211.48;;;8.09;90.06
65872;BME280;52653;50.080;21.992;2023-04-20T04:43:02;99209.95;;;8.13;89.92
65872;BME280;52653;50.080;21.992;2023-04-20T04:45:39;99210.47;;;8.17;89.86
65872;BME280;52653;50.080;21.992;2023-04-20T04:48:32;99212.21;;;8.18;89.75
65872;BME280;52653;50.080;21.992;2023-04-20T04:51:25;99210.46;;;8.22;89.66
65872;BME280;52653;50.080;21.992;2023-04-20T04:54:19;99208.05;;;8.30;89.69
65872;BME280;52653;50.080;21.992;2023-04-20T04:56:57;99211.92;;;8.38;89.79
65872;BME280;52653;50.080;21.992;2023-04-20T04:59:43;99214.73;;;8.42;89.43
65872;BME280;52653;50.080;21.992;2023-04-20T05:02:35;99213.33;;;8.45;89.18
65872;BME280;52653;50.080;21.992;2023-04-20T05:05:29;99212.98;;;8.48;89.08
65872;BME280;52653;50.080;21.992;2023-04-20T05:08:22;99212.98;;;8.51;89.11
65872;BME280;52653;50.080;21.992;2023-04-20T05:11:16;99219.11;;;8.56;89.08
65872;BME280;52653;50.080;21.992;2023-04-20T05:14:09;99224.54;;;8.63;89.24
65872;BME280;52653;50.080;21.992;2023-04-20T05:17:03;99228.73;;;8.67;88.89
65872;BME280;52653;50.080;21.992;2023-04-20T05:19:56;99226.81;;;8.76;88.98
65872;BME280;52653;50.080;21.992;2023-04-20T05:22:49;99239.91;;;8.85;88.76
65872;BME280;52653;50.080;21.992;2023-04-20T05:25:42;99245.86;;;8.99;88.96
65872;BME280;52653;50.080;21.992;2023-04-20T05:28:35;99243.59;;;9.07;87.94
65872;BME280;52653;50.080;21.992;2023-04-20T05:31:28;99241.81;;;9.13;87.82
65872;BME280;52653;50.080;21.992;2023-04-20T05:34:21;99240.57;;;9.23;87.62
65872;BME280;52653;50.080;21.992;2023-04-20T05:37:15;99245.27;;;9.36;87.59
65872;BME280;52653;50.080;21.992;2023-04-20T05:40:09;99244.02;;;9.50;87.22
65872;BME280;52653;50.080;21.992;2023-04-20T05:43:02;99249.77;;;9.60;86.28
65872;BME280;52653;50.080;21.992;2023-04-20T05:45:55;99245.71;;;9.69;85.98
65872;BME280;52653;50.080;21.992;2023-04-20T05:48:49;99246.02;;;9.75;85.57
65872;BME280;52653;50.080;21.992;2023-04-20T05:51:41;99252.45;;;9.91;86.08
65872;BME280;52653;50.080;21.992;2023-04-20T05:54:34;99254.80;;;10.18;86.05
65872;BME280;52653;50.080;21.992;2023-04-20T05:57:08;99261.02;;;10.36;85.24
65872;BME280;52653;50.080;21.992;2023-04-20T06:00:00;99260.89;;;10.56;84.52
65872;BME280;52653;50.080;21.992;2023-04-20T06:02:42;99261.82;;;10.72;83.70
65872;BME280;52653;50.080;21.992;2023-04-20T06:05:17;99259.92;;;10.90;83.61
65872;BME280;52653;50.080;21.992;2023-04-20T06:07:51;99264.89;;;11.05;82.41
65872;BME280;52653;50.080;21.992;2023-04-20T06:10:44;99263.65;;;11.07;81.65
65872;BME280;52653;50.080;21.992;2023-04-20T06:13:27;99262.41;;;11.08;81.59
65872;BME280;52653;50.080;21.992;2023-04-20T06:16:00;99264.52;;;11.09;81.76
65872;BME280;52653;50.080;21.992;2023-04-20T06:18:36;99265.59;;;11.06;81.45
65872;BME280;52653;50.080;21.992;2023-04-20T06:21:21;99265.59;;;11.07;81.87
65872;BME280;52653;50.080;21.992;2023-04-20T06:24:15;99264.89;;;11.05;81.47
65872;BME280;52653;50.080;21.992;2023-04-20T06:27:08;99262.88;;;10.93;81.02
65872;BME280;52653;50.080;21.992;2023-04-20T06:29:46;99263.34;;;10.80;81.27
65872;BME280;52653;50.080;21.992;2023-04-20T06:32:39;99266.88;;;10.75;81.96
65872;BME280;52653;50.080;21.992;2023-04-20T06:35:32;99268.46;;;10.76;82.13
65872;BME280;52653;50.080;21.992;2023-04-20T06:38:25;99269.49;;;10.79;82.33
65872;BME280;52653;50.080;21.992;2023-04-20T06:41:18;99273.35;;;10.81;81.55
65872;BME280;52653;50.080;21.992;2023-04-20T06:44:11;99272.95;;;10.85;81.50
65872;BME280;52653;50.080;21.992;2023-04-20T06:46:54;99273.07;;;10.94;81.51
65872;BME280;52653;50.080;21.992;2023-04-20T06:49:40;99274.55;;;11.04;81.28
65872;BME280;52653;50.080;21.992;2023-04-20T06:52:26;99273.98;;;11.10;80.68
65872;BME280;52653;50.080;21.992;2023-04-20T06:55:19;99271.63;;;11.16;80.82
65872;BME280;52653;50.080;21.992;2023-04-20T06:57:55;99278.27;;;11.20;80.62
65872;BME280;52653;50.080;21.992;2023-04-20T07:00:41;99272.27;;;11.24;80.80
65872;BME280;52653;50.080;21.992;2023-04-20T07:03:37;99272.21;;;11.29;80.41
65872;BME280;52653;50.080;21.992;2023-04-20T07:06:32;99266.94;;;11.31;79.43
65872;BME280;52653;50.080;21.992;2023-04-20T07:09:16;99262.70;;;11.33;79.72
65872;BME280;52653;50.080;21.992;2023-04-20T07:12:11;99265.63;;;11.38;79.44
65872;BME280;52653;50.080;21.992;2023-04-20T07:14:55;99265.02;;;11.47;79.52
65872;BME280;52653;50.080;21.992;2023-04-20T07:17:48;99273.09;;;11.63;79.28
65872;BME280;52653;50.080;21.992;2023-04-20T07:20:41;99274.00;;;11.78;78.57
65872;BME280;52653;50.080;21.992;2023-04-20T07:23:34;99274.45;;;12.01;78.75
65872;BME280;52653;50.080;21.992;2023-04-20T07:26:12;99276.27;;;12.24;77.87
65872;BME280;52653;50.080;21.992;2023-04-20T07:29:05;99280.71;;;12.45;75.96
65872;BME280;52653;50.080;21.992;2023-04-20T07:31:50;99280.41;;;12.66;75.84
65872;BME280;52653;50.080;21.992;2023-04-20T07:34:29;99286.66;;;12.94;75.88
65872;BME280;52653;50.080;21.992;2023-04-20T07:37:15;99288.06;;;13.17;73.94
65872;BME280;52653;50.080;21.992;2023-04-20T07:39:47;99285.23;;;13.29;72.42
65872;BME280;52653;50.080;21.992;2023-04-20T07:42:30;99286.23;;;13.43;72.67
65872;BME280;52653;50.080;21.992;2023-04-20T07:45:13;99283.71;;;13.65;72.41
65872;BME280;52653;50.080;21.992;2023-04-20T07:48:07;99282.40;;;13.95;72.19
65872;BME280;52653;50.080;21.992;2023-04-20T07:50:42;99286.13;;;14.19;70.74
65872;BME280;52653;50.080;21.992;2023-04-20T07:53:36;99283.91;;;14.32;69.04
65872;BME280;52653;50.080;21.992;2023-04-20T07:56:11;99285.79;;;14.44;69.24
65872;BME280;52653;50.080;21.992;2023-04-20T07:58:50;99287.58;;;14.67;69.54
65872;BME280;52653;50.080;21.992;2023-04-20T08:01:43;99284.70;;;14.84;68.35
65872;BME280;52653;50.080;21.992;2023-04-20T08:04:30;99283.54;;;15.03;68.30
65872;BME280;52653;50.080;21.992;2023-04-20T08:07:24;99289.40;;;15.23;66.79
65872;BME280;52653;50.080;21.992;2023-04-20T08:10:09;99283.77;;;15.36;65.62
65872;BME280;52653;50.080;21.992;2023-04-20T08:13:02;99280.92;;;15.43;64.63
65872;BME280;52653;50.080;21.992;2023-04-20T08:15:55;99281.98;;;15.43;63.93
65872;BME280;52653;50.080;21.992;2023-04-20T08:18:28;99285.38;;;15.55;65.14
65872;BME280;52653;50.080;21.992;2023-04-20T08:21:01;99286.54;;;15.67;63.82
65872;BME280;52653;50.080;21.992;2023-04-20T08:23:54;99287.59;;;15.79;64.17
65872;BME280;52653;50.080;21.992;2023-04-20T08:26:32;99287.84;;;15.90;64.75
65872;BME280;52653;50.080;21.992;2023-04-20T08:29:16;99290.81;;;15.91;63.29
65872;BME280;52653;50.080;21.992;2023-04-20T08:31:49;99290.08;;;15.85;63.52
65872;BME280;52653;50.080;21.992;2023-04-20T08:34:42;99292.63;;;15.76;62.83
65872;BME280;52653;50.080;21.992;2023-04-20T08:37:35;99286.55;;;15.58;63.09
65872;BME280;52653;50.080;21.992;2023-04-20T08:40:16;99284.80;;;15.44;63.58
65872;BME280;52653;50.080;21.992;2023-04-20T08:43:04;99280.16;;;15.32;64.81
65872;BME280;52653;50.080;21.992;2023-04-20T08:45:59;99279.90;;;15.22;65.04
65872;BME280;52653;50.080;21.992;2023-04-20T08:48:36;99278.43;;;15.23;65.86
65872;BME280;52653;50.080;21.992;2023-04-20T08:51:29;99278.61;;;15.30;64.67
65872;BME280;52653;50.080;21.992;2023-04-20T08:54:22;99271.48;;;15.46;64.73
65872;BME280;52653;50.080;21.992;2023-04-20T08:57:15;99266.66;;;15.63;65.13
65872;BME280;52653;50.080;21.992;2023-04-20T09:00:10;99266.13;;;15.82;64.93
65872;BME280;52653;50.080;21.992;2023-04-20T09:03:04;99259.48;;;15.98;63.67
65872;BME280;52653;50.080;21.992;2023-04-20T09:05:58;99259.23;;;16.06;62.62
65872;BME280;52653;50.080;21.992;2023-04-20T09:08:51;99255.26;;;15.91;61.77
65872;BME280;52653;50.080;21.992;2023-04-20T09:11:44;99255.28;;;15.90;63.37
65872;BME280;52653;50.080;21.992;2023-04-20T09:14:45;99258.02;;;16.00;63.13
65872;BME280;52653;50.080;21.992;2023-04-20T09:17:38;99257.11;;;16.41;63.73
65872;BME280;52653;50.080;21.992;2023-04-20T09:20:33;99253.14;;;17.00;63.66
65872;BME280;52653;50.080;21.992;2023-04-20T09:23:26;99251.94;;;17.51;63.08
65872;BME280;52653;50.080;21.992;2023-04-20T09:26:19;99249.13;;;17.85;61.06
65872;BME280;52653;50.080;21.992;2023-04-20T09:29:19;99254.14;;;17.99;58.93
65872;BME280;52653;50.080;21.992;2023-04-20T09:32:25;99259.59;;;18.06;57.80
65872;BME280;52653;50.080;21.992;2023-04-20T09:35:24;99259.84;;;17.89;50.57
65872;BME280;52653;50.080;21.992;2023-04-20T09:38:25;99260.85;;;17.60;50.47
65872;BME280;52653;50.080;21.992;2023-04-20T09:41:12;99257.60;;;17.47;50.54
65872;BME280;52653;50.080;21.992;2023-04-20T09:44:07;99256.98;;;17.53;50.67
65872;BME280;52653;50.080;21.992;2023-04-20T09:47:00;99255.66;;;17.72;49.95
65872;BME280;52653;50.080;21.992;2023-04-20T09:49:48;99245.99;;;17.94;50.21
65872;BME280;52653;50.080;21.992;2023-04-20T09:52:43;99253.94;;;18.23;48.86
65872;BME280;52653;50.080;21.992;2023-04-20T09:55:39;99251.89;;;18.16;46.75
65872;BME280;52653;50.080;21.992;2023-04-20T09:58:35;99252.81;;;18.15;46.82
65872;BME280;52653;50.080;21.992;2023-04-20T10:01:22;99247.29;;;18.20;46.67
65872;BME280;52653;50.080;21.992;2023-04-20T10:04:16;99244.39;;;18.22;45.85
65872;BME280;52653;50.080;21.992;2023-04-20T10:07:02;99240.14;;;18.22;46.13
65872;BME280;52653;50.080;21.992;2023-04-20T10:10:08;99235.67;;;18.36;46.32
65872;BME280;52653;50.080;21.992;2023-04-20T10:12:57;99238.29;;;18.33;44.60
65872;BME280;52653;50.080;21.992;2023-04-20T10:15:45;99236.54;;;18.28;45.11
65872;BME280;52653;50.080;21.992;2023-04-20T10:18:37;99237.08;;;18.33;42.84
65872;BME280;52653;50.080;21.992;2023-04-20T10:21:31;99231.25;;;18.59;40.98
65872;BME280;52653;50.080;21.992;2023-04-20T10:24:08;99229.33;;;18.89;40.00
65872;BME280;52653;50.080;21.992;2023-04-20T10:27:03;99226.57;;;19.20;39.97
65872;BME280;52653;50.080;21.992;2023-04-20T10:29:56;99228.27;;;19.52;37.52
65872;BME280;52653;50.080;21.992;2023-04-20T10:32:38;99219.47;;;19.74;38.27
65872;BME280;52653;50.080;21.992;2023-04-20T10:35:13;99231.53;;;19.90;38.15
65872;BME280;52653;50.080;21.992;2023-04-20T10:37:50;99232.82;;;19.93;38.49
65872;BME280;52653;50.080;21.992;2023-04-20T10:40:26;99228.70;;;19.82;38.25
65872;BME280;52653;50.080;21.992;2023-04-20T10:43:16;99230.80;;;19.75;38.72
65872;BME280;52653;50.080;21.992;2023-04-20T10:45:49;99230.80;;;19.80;38.89
65872;BME280;52653;50.080;21.992;2023-04-20T10:48:23;99230.39;;;19.76;36.06
65872;BME280;52653;50.080;21.992;2023-04-20T10:50:55;99227.48;;;19.70;36.84
65872;BME280;52653;50.080;21.992;2023-04-20T10:53:39;99225.60;;;19.64;37.96
65872;BME280;52653;50.080;21.992;2023-04-20T10:56:12;99225.40;;;19.52;37.69
65872;BME280;52653;50.080;21.992;2023-04-20T10:58:45;99222.03;;;19.35;36.93
65872;BME280;52653;50.080;21.992;2023-04-20T11:01:32;99218.02;;;19.29;37.74
65872;BME280;52653;50.080;21.992;2023-04-20T11:04:07;99218.80;;;19.40;37.67
65872;BME280;52653;50.080;21.992;2023-04-20T11:06:44;99218.55;;;19.59;37.43
65872;BME280;52653;50.080;21.992;2023-04-20T11:09:23;99216.34;;;19.80;38.02
65872;BME280;52653;50.080;21.992;2023-04-20T11:12:02;99214.83;;;20.02;38.18
65872;BME280;52653;50.080;21.992;2023-04-20T11:14:51;99216.98;;;20.13;37.76
65872;BME280;52653;50.080;21.992;2023-04-20T11:17:33;99211.88;;;20.26;37.47
65872;BME280;52653;50.080;21.992;2023-04-20T11:20:11;99212.20;;;20.27;36.71
65872;BME280;52653;50.080;21.992;2023-04-20T11:22:56;99216.70;;;20.19;37.11
65872;BME280;52653;50.080;21.992;2023-04-20T11:25:29;99214.96;;;20.02;36.86
65872;BME280;52653;50.080;21.992;2023-04-20T11:28:07;99213.11;;;19.81;37.34
65872;BME280;52653;50.080;21.992;2023-04-20T11:30:42;99209.98;;;19.59;38.88
65872;BME280;52653;50.080;21.992;2023-04-20T11:33:25;99213.20;;;19.46;39.71
65872;BME280;52653;50.080;21.992;2023-04-20T11:36:00;99208.44;;;19.33;39.05
65872;BME280;52653;50.080;21.992;2023-04-20T11:38:43;99204.98;;;19.26;37.63
65872;BME280;52653;50.080;21.992;2023-04-20T11:41:19;99199.94;;;19.32;38.90
65872;BME280;52653;50.080;21.992;2023-04-20T11:43:54;99196.83;;;19.51;38.74
65872;BME280;52653;50.080;21.992;2023-04-20T11:46:34;99194.27;;;19.80;38.99
65872;BME280;52653;50.080;21.992;2023-04-20T11:49:09;99190.52;;;20.08;36.21
65872;BME280;52653;50.080;21.992;2023-04-20T11:51:44;99188.04;;;20.15;36.63
65872;BME280;52653;50.080;21.992;2023-04-20T11:54:18;99194.45;;;20.22;36.40
65872;BME280;52653;50.080;21.992;2023-04-20T11:57:02;99196.01;;;20.27;35.22
65872;BME280;52653;50.080;21.992;2023-04-20T11:59:38;99195.56;;;20.28;35.94
65872;BME280;52653;50.080;21.992;2023-04-20T12:02:12;99192.46;;;20.19;35.14
65872;BME280;52653;50.080;21.992;2023-04-20T12:04:47;99194.96;;;20.00;35.11
65872;BME280;52653;50.080;21.992;2023-04-20T12:07:22;99192.79;;;19.85;36.88
65872;BME280;52653;50.080;21.992;2023-04-20T12:09:57;99192.00;;;19.63;37.88
65872;BME280;52653;50.080;21.992;2023-04-20T12:12:30;99190.64;;;19.37;37.38
65872;BME280;52653;50.080;21.992;2023-04-20T12:15:05;99195.66;;;19.11;37.50
65872;BME280;52653;50.080;21.992;2023-04-20T12:17:38;99191.86;;;18.88;37.42
65872;BME280;52653;50.080;21.992;2023-04-20T12:20:31;99192.80;;;18.60;37.72
65872;BME280;52653;50.080;21.992;2023-04-20T12:23:03;99193.61;;;18.45;38.88
65872;BME280;52653;50.080;21.992;2023-04-20T12:25:37;99193.65;;;18.39;39.16
65872;BME280;52653;50.080;21.992;2023-04-20T12:28:23;99190.81;;;18.35;38.40
65872;BME280;52653;50.080;21.992;2023-04-20T12:30:57;99191.41;;;18.46;39.16
65872;BME280;52653;50.080;21.992;2023-04-20T12:33:30;99191.69;;;18.71;39.87
65872;BME280;52653;50.080;21.992;2023-04-20T12:36:04;99188.91;;;18.95;40.06
65872;BME280;52653;50.080;21.992;2023-04-20T12:38:37;99189.04;;;19.17;38.97
65872;BME280;52653;50.080;21.992;2023-04-20T12:41:13;99191.81;;;19.35;38.10
65872;BME280;52653;50.080;21.992;2023-04-20T12:43:46;99189.00;;;19.46;37.85
65872;BME280;52653;50.080;21.992;2023-04-20T12:46:20;99188.58;;;19.60;37.53
65872;BME280;52653;50.080;21.992;2023-04-20T12:48:52;99187.11;;;19.73;37.19
65872;BME280;52653;50.080;21.992;2023-04-20T12:51:26;99184.41;;;19.86;36.82
65872;BME280;52653;50.080;21.992;2023-04-20T12:54:00;99183.82;;;19.87;35.88
65872;BME280;52653;50.080;21.992;2023-04-20T12:56:33;99183.69;;;19.82;35.49
65872;BME280;52653;50.080;21.992;2023-04-20T12:59:06;99181.64;;;19.84;36.37
65872;BME280;52653;50.080;21.992;2023-04-20T13:01:39;99182.80;;;19.93;35.85
65872;BME280;52653;50.080;21.992;2023-04-20T13:04:12;99176.92;;;20.05;35.32
65872;BME280;52653;50.080;21.992;2023-04-20T13:06:51;99173.81;;;20.18;35.50
65872;BME280;52653;50.080;21.992;2023-04-20T13:09:23;99177.95;;;20.21;34.18
65872;BME280;52653;50.080;21.992;2023-04-20T13:12:00;99174.11;;;20.23;33.95
65872;BME280;52653;50.080;21.992;2023-04-20T13:14:44;99173.80;;;20.22;34.97
65872;BME280;52653;50.080;21.992;2023-04-20T13:17:18;99168.63;;;20.26;35.35
65872;BME280;52653;50.080;21.992;2023-04-20T13:19:50;99163.69;;;20.28;35.65
65872;BME280;52653;50.080;21.992;2023-04-20T13:22:23;99161.14;;;20.26;35.41
65872;BME280;52653;50.080;21.992;2023-04-20T13:24:55;99160.14;;;20.28;36.74
65872;BME280;52653;50.080;21.992;2023-04-20T13:27:28;99162.02;;;20.34;35.48
65872;BME280;52653;50.080;21.992;2023-04-20T13:30:02;99162.29;;;20.36;36.19
65872;BME280;52653;50.080;21.992;2023-04-20T13:32:37;99155.65;;;20.48;37.24
65872;BME280;52653;50.080;21.992;2023-04-20T13:35:10;99153.39;;;20.58;35.82
65872;BME280;52653;50.080;21.992;2023-04-20T13:37:46;99153.14;;;20.67;36.32
65872;BME280;52653;50.080;21.992;2023-04-20T13:40:20;99154.90;;;20.81;36.39
65872;BME280;52653;50.080;21.992;2023-04-20T13:42:52;99155.45;;;20.88;35.26
65872;BME280;52653;50.080;21.992;2023-04-20T13:45:25;99156.48;;;21.02;35.76
65872;BME280;52653;50.080;21.992;2023-04-20T13:47:58;99161.20;;;21.04;34.94
65872;BME280;52653;50.080;21.992;2023-04-20T13:50:51;99161.73;;;20.98;35.80
65872;BME280;52653;50.080;21.992;2023-04-20T13:53:25;99160.54;;;20.93;35.25
65872;BME280;52653;50.080;21.992;2023-04-20T13:55:57;99163.15;;;20.80;34.98
65872;BME280;52653;50.080;21.992;2023-04-20T13:58:31;99162.86;;;20.68;35.91
65872;BME280;52653;50.080;21.992;2023-04-20T14:01:09;99167.75;;;20.59;35.75
65872;BME280;52653;50.080;21.992;2023-04-20T14:03:43;99164.37;;;20.52;36.00
65872;BME280;52653;50.080;21.992;2023-04-20T14:06:16;99167.67;;;20.46;37.06
65872;BME280;52653;50.080;21.992;2023-04-20T14:08:48;99163.72;;;20.39;35.96
65872;BME280;52653;50.080;21.992;2023-04-20T14:11:21;99164.20;;;20.22;36.54
65872;BME280;52653;50.080;21.992;2023-04-20T14:13:54;99162.59;;;20.03;35.89